Time;durP1;ratioP1;P1;durP2;ratioP2;P2;SDS_P1;SDS_P2;PMS_P1;PMS_P2;Temp;Humidity;BMP_temperature;BMP_pressure;BME280_temperature;BME280_humidity;BME280_pressure;Samples;Min_cycle;Max_cycle;Signal;HPM_P1;HPM_P2
2023/03/17 00:01:20;;;;;;;2.65;1.70;;;10.90;99.90;;;;;;4989575;28;20210;-76
2023/03/17 00:03:50;;;;;;;3.90;2.00;;;10.90;99.90;;;;;;4977638;28;20265;-77
2023/03/17 00:06:28;;;;;;;3.83;1.80;;;10.90;99.90;;;;;;4991272;28;20211;-75
2023/03/17 00:08:56;;;;;;;6.75;2.00;;;10.90;99.90;;;;;;4970457;28;20196;-78
2023/03/17 00:11:22;;;;;;;2.42;1.88;;;10.90;99.90;;;;;;4975717;28;20175;-73
2023/03/17 00:13:48;;;;;;;4.20;2.03;;;10.80;99.90;;;;;;4984754;28;20176;-79
2023/03/17 00:16:18;;;;;;;2.88;1.70;;;10.80;99.90;;;;;;4973823;28;20457;-77
2023/03/17 00:18:51;;;;;;;2.17;1.58;;;10.80;99.90;;;;;;4974133;28;20219;-76
2023/03/17 00:21:29;;;;;;;4.60;1.65;;;10.90;99.90;;;;;;4967643;28;20180;-78
2023/03/17 00:23:58;;;;;;;2.08;1.40;;;10.80;99.90;;;;;;4986259;28;20212;-80
2023/03/17 00:26:25;;;;;;;2.05;1.50;;;10.80;99.90;;;;;;4974827;28;20258;-77
2023/03/17 00:28:53;;;;;;;2.85;1.60;;;10.70;99.90;;;;;;4990654;28;20259;-72
2023/03/17 00:31:28;;;;;;;2.60;1.63;;;10.80;99.90;;;;;;4990929;28;20299;-79
2023/03/17 00:33:57;;;;;;;1.50;1.35;;;10.80;99.90;;;;;;4973090;28;20178;-70
2023/03/17 00:36:26;;;;;;;1.90;1.38;;;10.70;99.90;;;;;;4973790;28;20229;-75
2023/03/17 00:38:56;;;;;;;3.00;1.75;;;10.70;99.90;;;;;;4961533;28;20192;-77
2023/03/17 00:41:22;;;;;;;2.70;1.65;;;10.70;99.90;;;;;;4983771;28;20183;-78
2023/03/17 00:43:49;;;;;;;2.53;1.83;;;10.70;99.90;;;;;;4970691;28;20204;-73
2023/03/17 00:46:17;;;;;;;3.30;2.17;;;10.70;99.90;;;;;;4973400;28;20207;-79
2023/03/17 00:48:44;;;;;;;1.80;1.50;;;10.60;99.90;;;;;;4984549;28;20168;-77
2023/03/17 00:51:11;;;;;;;2.05;1.60;;;10.60;99.90;;;;;;4977037;28;20200;-75
2023/03/17 00:53:39;;;;;;;2.33;1.50;;;10.60;99.90;;;;;;4990154;28;20176;-78
2023/03/17 00:56:15;;;;;;;2.63;1.65;;;10.60;99.90;;;;;;4989535;28;20199;-78
2023/03/17 00:58:41;;;;;;;2.83;1.70;;;10.60;99.90;;;;;;4968143;28;20200;-79
2023/03/17 01:01:07;;;;;;;2.75;1.67;;;10.50;99.90;;;;;;4990971;28;20172;-73
2023/03/17 01:03:33;;;;;;;3.10;1.75;;;10.50;99.90;;;;;;4978907;28;20195;-79
2023/03/17 01:06:01;;;;;;;2.38;1.80;;;10.50;99.90;;;;;;4976065;28;20219;-75
2023/03/17 01:08:29;;;;;;;3.03;1.60;;;10.50;99.90;;;;;;4978802;28;20180;-79
2023/03/17 01:10:55;;;;;;;3.03;1.80;;;10.50;99.90;;;;;;4979262;28;20203;-79
2023/03/17 01:13:23;;;;;;;2.13;1.60;;;10.60;99.90;;;;;;4981004;28;20230;-79
2023/03/17 01:15:52;;;;;;;1.90;1.63;;;10.60;99.90;;;;;;4997758;28;20172;-76
2023/03/17 01:18:20;;;;;;;2.70;1.70;;;10.50;99.90;;;;;;4987136;28;20254;-79
2023/03/17 01:20:48;;;;;;;2.25;1.70;;;10.50;99.90;;;;;;4977179;28;20211;-79
2023/03/17 01:23:17;;;;;;;2.38;1.67;;;10.50;99.90;;;;;;4977593;28;20188;-77
2023/03/17 01:25:44;;;;;;;2.00;1.70;;;10.50;99.90;;;;;;4983999;28;20231;-77
2023/03/17 01:28:14;;;;;;;1.60;1.50;;;10.50;99.90;;;;;;4976641;28;20184;-77
2023/03/17 01:30:40;;;;;;;3.17;1.75;;;10.50;99.90;;;;;;4976417;28;20223;-79
2023/03/17 01:33:07;;;;;;;1.65;1.38;;;10.50;99.90;;;;;;4994078;28;20242;-65
2023/03/17 01:35:35;;;;;;;2.05;1.73;;;10.50;99.90;;;;;;4994020;28;20203;-65
2023/03/17 01:38:04;;;;;;;1.90;1.48;;;10.50;99.90;;;;;;4993866;28;20269;-65
2023/03/17 01:40:33;;;;;;;2.45;1.70;;;10.50;99.90;;;;;;4979704;28;20442;-65
2023/03/17 01:43:08;;;;;;;3.55;1.60;;;10.40;99.90;;;;;;4993381;28;20351;-66
2023/03/17 01:46:11;;;;;;;3.17;1.80;;;10.50;99.90;;;;;;4995375;28;20254;-65
2023/03/17 01:49:03;;;;;;;3.13;1.80;;;10.40;99.90;;;;;;4972076;28;20187;-65
2023/03/17 01:51:41;;;;;;;2.07;1.60;;;10.40;99.90;;;;;;4984055;28;20242;-65
2023/03/17 01:54:15;;;;;;;5.32;2.00;;;10.40;99.90;;;;;;4969440;28;20191;-66
2023/03/17 01:56:47;;;;;;;2.33;1.65;;;10.30;99.90;;;;;;4964319;28;20176;-65
2023/03/17 01:59:21;;;;;;;2.35;1.70;;;10.30;99.90;;;;;;4977020;28;20211;-65
2023/03/17 02:01:49;;;;;;;2.80;1.70;;;10.30;99.90;;;;;;4976648;28;20222;-66
2023/03/17 02:04:19;;;;;;;3.30;1.87;;;10.30;99.90;;;;;;4984681;28;20204;-66
2023/03/17 02:06:50;;;;;;;2.27;1.63;;;10.30;99.90;;;;;;4970666;28;20404;-65
2023/03/17 02:09:18;;;;;;;2.27;1.47;;;10.30;99.90;;;;;;4986241;28;20286;-66
2023/03/17 02:11:44;;;;;;;1.87;1.50;;;10.30;99.90;;;;;;4977285;28;20176;-65
2023/03/17 02:14:11;;;;;;;2.25;1.90;;;10.30;99.90;;;;;;4976820;28;20187;-66
2023/03/17 02:16:41;;;;;;;2.70;1.63;;;10.30;99.90;;;;;;4976873;28;20199;-65
2023/03/17 02:19:07;;;;;;;2.20;1.50;;;10.30;99.90;;;;;;4976798;28;20230;-66
2023/03/17 02:21:52;;;;;;;2.13;1.80;;;10.20;99.90;;;;;;4976255;28;20181;-65
2023/03/17 02:24:59;;;;;;;2.13;1.60;;;10.20;99.90;;;;;;4976686;28;20230;-66
2023/03/17 02:27:33;;;;;;;3.60;1.80;;;10.20;99.90;;;;;;4970688;28;20181;-65
2023/03/17 02:30:01;;;;;;;2.30;1.70;;;10.20;99.90;;;;;;4977988;28;20189;-65
2023/03/17 02:32:34;;;;;;;2.13;1.50;;;10.20;99.90;;;;;;4960552;28;20474;-65
2023/03/17 02:35:00;;;;;;;2.30;1.70;;;10.20;99.90;;;;;;4991651;28;20204;-65
2023/03/17 02:37:26;;;;;;;4.63;1.73;;;10.20;99.90;;;;;;4970555;28;20227;-66
2023/03/17 02:39:54;;;;;;;2.00;1.40;;;10.10;99.90;;;;;;4984393;28;20180;-65
2023/03/17 02:42:27;;;;;;;2.17;1.70;;;10.10;99.90;;;;;;4976344;28;20195;-65
2023/03/17 02:44:55;;;;;;;3.07;1.77;;;10.10;99.90;;;;;;4975038;28;20207;-66
2023/03/17 02:47:21;;;;;;;2.93;1.80;;;10.10;99.90;;;;;;4989339;28;20214;-65
2023/03/17 02:49:49;;;;;;;2.33;1.70;;;10.10;99.90;;;;;;4965004;28;20204;-66
2023/03/17 02:52:15;;;;;;;2.03;1.53;;;10.10;99.90;;;;;;4990873;28;20402;-65
2023/03/17 02:54:43;;;;;;;2.40;1.47;;;10.10;99.90;;;;;;4973376;28;20169;-65
2023/03/17 02:57:09;;;;;;;2.03;1.73;;;10.10;99.90;;;;;;4979851;28;20230;-65
2023/03/17 02:59:35;;;;;;;1.80;1.50;;;10.10;99.90;;;;;;4976830;28;20200;-65
2023/03/17 03:02:01;;;;;;;2.43;1.83;;;10.10;99.90;;;;;;4975957;28;20207;-65
2023/03/17 03:04:29;;;;;;;2.23;1.50;;;10.10;99.90;;;;;;4985218;28;20231;-65
2023/03/17 03:06:55;;;;;;;2.80;1.60;;;10.10;99.90;;;;;;4973684;28;20176;-65
2023/03/17 03:09:24;;;;;;;4.70;1.40;;;10.10;99.90;;;;;;4990803;28;20183;-66
2023/03/17 03:11:52;;;;;;;1.40;1.10;;;10.00;99.90;;;;;;4991757;28;20180;-66
2023/03/17 03:14:20;;;;;;;2.97;1.50;;;10.00;99.90;;;;;;4976144;28;20177;-65
2023/03/17 03:16:46;;;;;;;2.63;1.50;;;10.00;99.90;;;;;;4987228;28;20222;-66
2023/03/17 03:19:14;;;;;;;1.87;1.30;;;10.00;99.90;;;;;;4976393;28;20239;-66
2023/03/17 03:21:44;;;;;;;2.83;1.60;;;10.00;99.90;;;;;;4972634;28;20227;-65
2023/03/17 03:24:10;;;;;;;2.55;1.40;;;10.00;99.90;;;;;;4987344;28;20200;-65
2023/03/17 03:26:38;;;;;;;1.77;1.50;;;10.00;99.90;;;;;;4974585;28;20199;-65
2023/03/17 03:29:06;;;;;;;2.30;1.80;;;9.90;99.90;;;;;;4970904;28;20263;-65
2023/03/17 03:31:34;;;;;;;3.20;1.70;;;9.90;99.90;;;;;;4989633;28;20200;-65
2023/03/17 03:34:03;;;;;;;2.50;1.70;;;9.90;99.90;;;;;;4965468;28;20188;-65
2023/03/17 03:36:28;;;;;;;2.90;1.53;;;9.90;99.90;;;;;;4987896;28;20193;-65
2023/03/17 03:38:59;;;;;;;3.80;1.43;;;9.90;99.90;;;;;;4984444;28;20207;-65
2023/03/17 03:41:26;;;;;;;2.30;1.60;;;9.90;99.90;;;;;;4990905;28;20203;-65
2023/03/17 03:43:52;;;;;;;1.93;1.50;;;9.80;99.90;;;;;;4991514;28;20187;-65
2023/03/17 03:46:17;;;;;;;1.57;1.27;;;9.80;99.90;;;;;;4987805;28;20199;-65
2023/03/17 03:48:48;;;;;;;5.40;2.50;;;9.80;99.90;;;;;;4990553;28;20190;-65
2023/03/17 03:51:13;;;;;;;4.03;2.60;;;9.80;99.90;;;;;;4974793;28;20200;-65
2023/03/17 03:53:39;;;;;;;2.93;2.37;;;9.80;99.90;;;;;;4989140;28;20194;-66
2023/03/17 03:56:05;;;;;;;4.27;2.10;;;9.70;99.90;;;;;;4969297;28;20176;-65
2023/03/17 03:58:33;;;;;;;3.17;2.20;;;9.60;99.90;;;;;;4981501;28;20208;-66
2023/03/17 04:01:02;;;;;;;3.07;2.10;;;9.60;99.90;;;;;;4982449;28;20171;-65
2023/03/17 04:03:28;;;;;;;3.77;1.90;;;9.60;99.90;;;;;;4984385;28;20195;-66
2023/03/17 04:05:55;;;;;;;1.80;1.60;;;9.60;99.90;;;;;;4976032;28;20204;-66
2023/03/17 04:08:21;;;;;;;2.70;2.20;;;9.50;99.90;;;;;;4984512;28;20192;-65
2023/03/17 04:10:49;;;;;;;2.30;1.90;;;9.50;99.90;;;;;;4975093;28;20203;-65
2023/03/17 04:13:14;;;;;;;2.20;1.70;;;9.50;99.90;;;;;;4985402;28;20179;-66
2023/03/17 04:15:40;;;;;;;2.40;1.90;;;9.50;99.90;;;;;;4974446;28;20188;-65
2023/03/17 04:18:06;;;;;;;2.70;2.10;;;9.40;99.90;;;;;;4973787;28;20211;-66
2023/03/17 04:20:31;;;;;;;2.90;2.33;;;9.40;99.90;;;;;;4974195;28;20188;-66
2023/03/17 04:22:59;;;;;;;3.07;2.37;;;9.50;99.90;;;;;;4972220;28;20199;-65
2023/03/17 04:25:25;;;;;;;3.57;2.10;;;9.40;99.90;;;;;;4971852;28;20266;-65
2023/03/17 04:27:51;;;;;;;3.87;2.43;;;9.40;99.90;;;;;;4973827;28;20200;-65
2023/03/17 04:30:17;;;;;;;2.73;2.33;;;9.50;99.90;;;;;;4974683;28;20180;-65
2023/03/17 04:32:44;;;;;;;3.77;2.50;;;9.40;99.90;;;;;;4996637;28;20192;-65
2023/03/17 04:35:15;;;;;;;2.77;2.07;;;9.40;99.90;;;;;;4968172;28;20259;-66
2023/03/17 04:37:41;;;;;;;3.80;2.40;;;9.40;99.90;;;;;;4996890;28;20278;-65
2023/03/17 04:40:08;;;;;;;4.33;2.73;;;9.50;99.90;;;;;;4977614;28;20181;-65
2023/03/17 04:42:35;;;;;;;2.63;2.13;;;9.40;99.90;;;;;;4995008;28;20218;-66
2023/03/17 04:45:04;;;;;;;3.70;2.17;;;9.40;99.90;;;;;;4986947;28;20299;-65
2023/03/17 04:47:31;;;;;;;3.73;2.50;;;9.40;99.90;;;;;;4978125;28;20188;-66
2023/03/17 04:49:57;;;;;;;2.13;1.90;;;9.50;99.90;;;;;;4996031;28;20185;-65
2023/03/17 04:52:25;;;;;;;2.30;2.00;;;9.50;99.90;;;;;;4982501;28;20234;-65
2023/03/17 04:54:52;;;;;;;2.90;2.20;;;9.40;99.90;;;;;;4996817;28;20183;-65
2023/03/17 04:57:21;;;;;;;2.83;2.20;;;9.40;99.90;;;;;;4971690;28;20180;-65
2023/03/17 04:59:46;;;;;;;4.17;2.27;;;9.40;99.90;;;;;;4980850;28;20231;-66
2023/03/17 05:02:14;;;;;;;3.10;2.23;;;9.30;99.90;;;;;;4993898;28;20235;-65
2023/03/17 05:04:41;;;;;;;3.47;2.40;;;9.40;99.90;;;;;;4995787;28;20235;-65
2023/03/17 05:07:07;;;;;;;3.10;2.00;;;9.40;99.90;;;;;;4977113;28;20232;-65
2023/03/17 05:09:37;;;;;;;2.53;2.00;;;9.40;99.90;;;;;;4979733;28;20263;-66
2023/03/17 05:12:03;;;;;;;2.90;1.83;;;9.40;99.90;;;;;;4978850;28;20176;-66
2023/03/17 05:14:29;;;;;;;3.50;2.03;;;9.40;99.90;;;;;;4991036;28;20299;-66
2023/03/17 05:16:54;;;;;;;2.47;1.83;;;9.40;99.90;;;;;;4979572;28;20270;-65
2023/03/17 05:19:20;;;;;;;3.00;2.30;;;9.50;99.90;;;;;;4976719;28;20183;-66
2023/03/17 05:21:46;;;;;;;2.13;1.73;;;9.50;99.90;;;;;;4980110;28;20184;-65
2023/03/17 05:24:12;;;;;;;2.20;1.97;;;9.50;99.90;;;;;;4979466;28;20172;-65
2023/03/17 05:26:40;;;;;;;2.53;1.93;;;9.50;99.90;;;;;;4986966;28;20192;-65
2023/03/17 05:29:10;;;;;;;3.50;1.83;;;9.60;99.90;;;;;;4983595;28;20173;-66
2023/03/17 05:31:36;;;;;;;2.13;1.70;;;9.50;99.90;;;;;;4978136;28;20168;-65
2023/03/17 05:34:02;;;;;;;2.50;1.90;;;9.60;99.90;;;;;;4980841;28;20176;-65
2023/03/17 05:36:27;;;;;;;2.33;1.70;;;9.60;99.90;;;;;;4980377;28;20196;-65
2023/03/17 05:38:53;;;;;;;3.10;1.90;;;9.60;99.90;;;;;;4979550;28;20172;-65
2023/03/17 05:41:19;;;;;;;4.27;2.30;;;9.60;99.90;;;;;;4995558;28;20264;-66
2023/03/17 05:43:45;;;;;;;4.77;3.03;;;9.60;99.90;;;;;;4973700;28;20180;-65
2023/03/17 05:46:14;;;;;;;3.00;2.30;;;9.70;99.90;;;;;;4971197;28;20192;-65
2023/03/17 05:48:42;;;;;;;2.70;1.90;;;9.70;99.90;;;;;;4993432;28;20172;-64
2023/03/17 05:51:10;;;;;;;2.70;1.90;;;9.70;99.90;;;;;;4978899;28;20176;-65
2023/03/17 05:53:38;;;;;;;3.13;1.90;;;9.70;99.90;;;;;;4975687;28;20208;-64
2023/03/17 05:56:08;;;;;;;4.07;2.10;;;9.70;99.90;;;;;;4963066;28;20281;-67
2023/03/17 05:58:33;;;;;;;2.23;1.83;;;9.70;99.90;;;;;;4974455;28;20204;-66
2023/03/17 06:01:01;;;;;;;4.27;2.10;;;9.70;99.90;;;;;;4988383;28;20493;-66
2023/03/17 06:03:29;;;;;;;2.87;2.00;;;9.70;99.90;;;;;;4993561;28;20216;-66
2023/03/17 06:05:57;;;;;;;3.53;2.03;;;9.70;99.90;;;;;;4977004;28;20222;-65
2023/03/17 06:08:25;;;;;;;2.30;1.73;;;9.70;99.90;;;;;;4971483;28;20220;-65
2023/03/17 06:10:51;;;;;;;2.37;1.80;;;9.70;99.90;;;;;;4977474;28;20259;-66
2023/03/17 06:13:16;;;;;;;2.58;2.08;;;9.80;99.90;;;;;;4974100;28;20271;-66
2023/03/17 06:15:44;;;;;;;2.67;1.70;;;9.80;99.90;;;;;;4969443;28;20188;-66
2023/03/17 06:18:10;;;;;;;2.42;1.90;;;9.80;99.90;;;;;;4975520;28;20206;-65
2023/03/17 06:20:36;;;;;;;2.67;1.90;;;9.80;99.90;;;;;;4974161;28;20188;-65
2023/03/17 06:23:01;;;;;;;3.53;1.85;;;9.90;99.90;;;;;;4983886;28;20184;-66
2023/03/17 06:25:27;;;;;;;2.33;1.77;;;9.90;99.90;;;;;;4974162;28;20427;-65
2023/03/17 06:27:56;;;;;;;2.10;1.70;;;9.90;99.90;;;;;;4976984;28;20259;-66
2023/03/17 06:30:22;;;;;;;2.75;1.80;;;10.00;99.90;;;;;;4970639;28;20236;-66
2023/03/17 06:32:47;;;;;;;2.50;1.83;;;10.00;99.90;;;;;;4993087;28;20242;-66
2023/03/17 06:35:13;;;;;;;2.20;2.00;;;10.10;99.90;;;;;;4976619;28;20343;-65
2023/03/17 06:37:41;;;;;;;2.38;1.88;;;10.10;99.90;;;;;;4976505;28;20188;-65
2023/03/17 06:40:10;;;;;;;2.88;1.73;;;10.10;99.90;;;;;;4976430;28;20218;-65
2023/03/17 06:42:37;;;;;;;3.30;2.00;;;10.10;99.90;;;;;;4973729;28;20192;-66
2023/03/17 06:45:03;;;;;;;3.75;1.63;;;10.20;99.90;;;;;;4984823;28;20235;-65
2023/03/17 06:47:29;;;;;;;3.33;1.90;;;10.20;99.90;;;;;;4974439;28;20277;-65
2023/03/17 06:49:55;;;;;;;2.45;1.73;;;10.30;99.90;;;;;;4985589;28;20257;-65
2023/03/17 06:52:21;;;;;;;3.15;2.17;;;10.30;99.90;;;;;;4972673;28;20199;-65
2023/03/17 06:54:47;;;;;;;2.58;1.88;;;10.40;99.90;;;;;;4975995;28;20180;-66
2023/03/17 06:57:17;;;;;;;2.78;1.65;;;10.50;99.90;;;;;;4976854;28;20182;-65
2023/03/17 06:59:44;;;;;;;2.67;2.05;;;10.50;99.90;;;;;;4986955;28;20183;-66
2023/03/17 07:02:10;;;;;;;4.22;2.08;;;10.50;99.90;;;;;;4990621;28;20235;-65
2023/03/17 07:04:37;;;;;;;3.55;1.95;;;10.60;99.90;;;;;;4992843;28;20196;-66
2023/03/17 07:07:04;;;;;;;2.88;1.83;;;10.60;99.90;;;;;;4984236;28;20176;-65
2023/03/17 07:09:34;;;;;;;3.05;2.22;;;10.60;99.90;;;;;;4973473;28;20177;-65
2023/03/17 07:12:03;;;;;;;2.30;1.95;;;10.70;99.90;;;;;;4983924;28;20200;-66
2023/03/17 07:14:32;;;;;;;2.40;1.77;;;10.70;99.90;;;;;;4972561;28;20176;-63
2023/03/17 07:17:00;;;;;;;3.08;1.70;;;10.70;99.90;;;;;;4973036;28;20181;-64
2023/03/17 07:19:31;;;;;;;2.53;1.73;;;10.90;99.90;;;;;;4981623;28;20335;-65
2023/03/17 07:22:01;;;;;;;3.92;1.80;;;10.90;99.90;;;;;;4976194;28;20176;-65
2023/03/17 07:24:30;;;;;;;2.78;1.80;;;10.90;99.90;;;;;;4975323;28;20187;-65
2023/03/17 07:26:55;;;;;;;2.33;1.63;;;10.90;99.90;;;;;;4965258;28;20180;-65
2023/03/17 07:29:22;;;;;;;2.35;1.85;;;11.00;99.90;;;;;;4963675;28;20168;-65
2023/03/17 07:31:49;;;;;;;2.72;1.92;;;11.00;99.90;;;;;;4973006;28;20222;-65
2023/03/17 07:34:15;;;;;;;4.05;2.00;;;11.10;99.90;;;;;;4967996;28;20188;-65
2023/03/17 07:36:43;;;;;;;2.88;1.70;;;11.10;99.90;;;;;;4986151;28;20207;-65
2023/03/17 07:39:09;;;;;;;1.98;1.77;;;11.20;99.90;;;;;;4967511;28;20247;-65
2023/03/17 07:41:37;;;;;;;3.55;1.98;;;11.20;99.90;;;;;;4975785;28;20328;-65
2023/03/17 07:44:03;;;;;;;2.70;1.80;;;11.20;99.90;;;;;;4973887;28;20205;-65
2023/03/17 07:46:31;;;;;;;2.95;1.85;;;11.30;99.90;;;;;;4976262;28;20280;-65
2023/03/17 07:48:57;;;;;;;3.08;2.10;;;11.30;99.90;;;;;;4975835;28;20259;-65
2023/03/17 07:51:24;;;;;;;2.20;1.63;;;11.30;99.90;;;;;;4971591;28;20215;-65
2023/03/17 07:53:50;;;;;;;3.08;2.05;;;11.50;99.90;;;;;;4972724;28;20177;-65
2023/03/17 07:56:18;;;;;;;2.38;1.77;;;11.50;99.90;;;;;;4990363;28;20211;-65
2023/03/17 07:58:44;;;;;;;3.92;2.10;;;11.60;99.90;;;;;;4980662;28;20191;-66
2023/03/17 08:01:09;;;;;;;3.90;1.60;;;11.60;99.90;;;;;;4976090;28;20365;-65
2023/03/17 08:03:37;;;;;;;3.17;2.00;;;11.60;99.90;;;;;;4976021;28;20263;-65
2023/03/17 08:06:07;;;;;;;2.13;1.80;;;11.70;99.90;;;;;;4971261;28;20477;-66
2023/03/17 08:08:33;;;;;;;3.83;1.80;;;11.80;99.90;;;;;;4989956;28;20175;-66
2023/03/17 08:11:04;;;;;;;2.47;1.80;;;11.80;99.90;;;;;;4989644;28;20183;-66
2023/03/17 08:13:30;;;;;;;3.45;1.83;;;11.90;99.90;;;;;;4981122;28;20212;-67
2023/03/17 08:15:57;;;;;;;2.65;1.90;;;11.90;99.90;;;;;;4956155;28;20271;-64
2023/03/17 08:18:22;;;;;;;3.72;2.00;;;12.00;99.90;;;;;;4984774;28;20180;-66
2023/03/17 08:20:50;;;;;;;3.80;1.92;;;12.00;99.90;;;;;;4974807;28;20168;-66
2023/03/17 08:23:18;;;;;;;3.80;1.65;;;12.10;99.90;;;;;;4972933;28;20184;-65
2023/03/17 08:25:47;;;;;;;2.22;1.70;;;12.10;99.90;;;;;;4960633;28;20524;-65
2023/03/17 08:28:18;;;;;;;2.58;1.70;;;12.20;99.90;;;;;;4972401;28;20207;-65
2023/03/17 08:30:44;;;;;;;4.00;1.80;;;12.30;99.90;;;;;;4980387;28;20183;-65
2023/03/17 08:33:10;;;;;;;2.63;2.00;;;12.40;99.90;;;;;;4956614;28;20284;-65
2023/03/17 08:35:36;;;;;;;2.58;1.90;;;12.40;99.90;;;;;;4965739;28;20212;-65
2023/03/17 08:38:05;;;;;;;3.13;1.92;;;12.50;99.90;;;;;;4986727;28;20293;-65
2023/03/17 08:40:33;;;;;;;2.40;1.90;;;12.60;99.90;;;;;;4981618;28;20187;-65
2023/03/17 08:43:01;;;;;;;2.15;1.77;;;12.60;99.90;;;;;;4958526;28;20232;-65
2023/03/17 08:45:29;;;;;;;2.70;1.67;;;12.70;99.90;;;;;;4975489;28;20238;-65
2023/03/17 08:47:55;;;;;;;3.65;1.88;;;12.80;99.90;;;;;;4975061;28;20226;-65
2023/03/17 08:50:25;;;;;;;2.33;1.80;;;12.80;99.90;;;;;;4975496;28;20179;-65
2023/03/17 08:52:51;;;;;;;2.70;1.73;;;12.90;99.90;;;;;;4974656;28;20199;-65
2023/03/17 08:55:18;;;;;;;2.17;1.77;;;13.00;99.90;;;;;;4964171;28;20196;-65
2023/03/17 08:57:44;;;;;;;2.65;1.60;;;13.10;99.90;;;;;;4966306;28;20173;-64
2023/03/17 09:00:19;;;;;;;3.42;1.80;;;13.20;99.90;;;;;;4961379;28;20267;-65
2023/03/17 09:02:45;;;;;;;2.17;1.65;;;13.30;99.90;;;;;;4962239;28;20191;-65
2023/03/17 09:05:15;;;;;;;3.80;1.88;;;13.40;99.90;;;;;;4972111;28;20274;-65
2023/03/17 09:07:44;;;;;;;2.45;1.88;;;13.50;99.90;;;;;;4966658;28;20228;-65
2023/03/17 09:10:11;;;;;;;2.80;1.90;;;13.50;99.90;;;;;;4971631;28;20176;-65
2023/03/17 09:12:39;;;;;;;2.33;1.73;;;13.70;99.90;;;;;;4990649;28;20192;-65
2023/03/17 09:15:06;;;;;;;2.72;1.80;;;13.80;99.90;;;;;;4965712;28;20188;-65
2023/03/17 09:17:34;;;;;;;2.17;1.80;;;13.90;99.90;;;;;;4973171;28;20192;-66
2023/03/17 09:20:05;;;;;;;3.25;1.85;;;14.00;99.90;;;;;;4988545;28;20189;-64
2023/03/17 09:22:33;;;;;;;3.50;1.90;;;14.10;99.90;;;;;;4992781;28;20176;-65
2023/03/17 09:24:59;;;;;;;3.53;1.67;;;14.20;99.90;;;;;;4977487;28;20203;-65
2023/03/17 09:27:27;;;;;;;2.97;1.67;;;14.30;99.90;;;;;;4970022;28;20176;-65
2023/03/17 09:29:57;;;;;;;2.17;1.65;;;14.40;99.90;;;;;;4978551;28;20184;-64
2023/03/17 09:32:27;;;;;;;2.55;1.70;;;14.50;99.90;;;;;;4979720;28;20164;-65
2023/03/17 09:34:52;;;;;;;2.28;1.70;;;14.60;99.90;;;;;;4977912;28;20176;-64
2023/03/17 09:37:18;;;;;;;2.72;1.67;;;14.70;99.90;;;;;;4967938;28;20223;-65
2023/03/17 09:39:44;;;;;;;3.13;2.10;;;14.80;99.90;;;;;;4989693;28;20263;-65
2023/03/17 09:42:23;;;;;;;3.15;2.00;;;14.90;99.90;;;;;;4993558;28;20227;-65
2023/03/17 09:45:16;;;;;;;2.47;1.80;;;15.00;99.90;;;;;;4994321;28;20259;-65
2023/03/17 09:47:52;;;;;;;2.53;1.75;;;15.10;99.90;;;;;;4967272;28;20164;-64
2023/03/17 09:50:31;;;;;;;3.15;1.75;;;15.40;99.90;;;;;;4978432;28;20222;-66
2023/03/17 09:53:00;;;;;;;3.22;1.90;;;15.70;99.90;;;;;;4966946;28;20179;-66
2023/03/17 09:55:31;;;;;;;3.10;1.75;;;16.10;99.90;;;;;;4975304;28;20173;-65
2023/03/17 09:58:02;;;;;;;2.50;1.50;;;16.40;99.90;;;;;;4973181;28;20207;-65
2023/03/17 10:00:30;;;;;;;3.47;1.70;;;16.80;99.90;;;;;;4978153;28;20172;-65
2023/03/17 10:02:57;;;;;;;2.40;1.80;;;17.10;99.90;;;;;;4977996;28;20242;-68
2023/03/17 10:05:32;;;;;;;3.13;2.10;;;17.30;99.90;;;;;;4962161;28;20232;-65
2023/03/17 10:08:04;;;;;;;3.92;1.95;;;17.40;99.90;;;;;;4970115;28;20182;-65
2023/03/17 10:10:44;;;;;;;5.38;1.85;;;17.40;99.90;;;;;;4994346;28;20176;-66
2023/03/17 10:13:48;;;;;;;2.63;1.63;;;17.40;99.90;;;;;;4969749;28;20228;-65
2023/03/17 10:16:18;;;;;;;2.63;1.55;;;17.40;99.90;;;;;;4971958;28;20282;-66
2023/03/17 10:18:52;;;;;;;3.15;1.88;;;17.40;99.90;;;;;;4977380;28;20176;-65
2023/03/17 10:21:23;;;;;;;4.75;1.85;;;17.50;99.90;;;;;;4977721;28;20180;-65
2023/03/17 10:23:53;;;;;;;2.03;1.60;;;17.70;99.90;;;;;;4977272;28;20231;-65
2023/03/17 10:26:33;;;;;;;3.42;1.90;;;17.90;99.90;;;;;;4973374;28;20215;-65
2023/03/17 10:29:03;;;;;;;3.72;1.83;;;18.10;99.90;;;;;;4986927;28;20259;-65
2023/03/17 10:31:34;;;;;;;3.92;2.10;;;18.30;99.90;;;;;;4980577;28;20176;-66
2023/03/17 10:34:44;;;;;;;2.95;1.80;;;18.50;99.90;;;;;;4991846;28;20263;-65
2023/03/17 10:37:17;;;;;;;2.78;2.13;;;18.70;99.90;;;;;;4934250;28;20195;-65
2023/03/17 10:39:54;;;;;;;4.55;1.80;;;18.80;99.90;;;;;;4992829;28;20180;-65
2023/03/17 10:42:34;;;;;;;2.17;1.60;;;18.80;99.90;;;;;;4976311;28;20281;-65
2023/03/17 10:45:15;;;;;;;3.45;1.90;;;18.90;99.90;;;;;;4974454;28;20222;-65
2023/03/17 10:47:47;;;;;;;3.42;1.83;;;18.90;99.90;;;;;;4958127;28;20217;-65
2023/03/17 10:50:27;;;;;;;3.78;1.95;;;18.80;99.90;;;;;;4988174;28;20206;-66
2023/03/17 10:52:56;;;;;;;3.13;1.95;;;18.70;99.90;;;;;;4976144;28;20190;-65
2023/03/17 10:55:32;;;;;;;3.47;2.03;;;18.50;99.90;;;;;;4989434;28;20231;-65
2023/03/17 10:58:12;;;;;;;3.42;2.05;;;18.40;99.90;;;;;;4976197;28;20204;-66
2023/03/17 11:00:38;;;;;;;3.67;2.20;;;18.30;99.90;;;;;;4969135;28;20297;-65
2023/03/17 11:03:21;;;;;;;2.38;1.98;;;18.20;99.90;;;;;;4976154;28;20208;-65
2023/03/17 11:06:02;;;;;;;5.20;2.40;;;18.30;99.90;;;;;;4992401;28;20232;-66
2023/03/17 11:08:40;;;;;;;3.55;2.00;;;18.40;98.40;;;;;;4986127;28;20192;-66
2023/03/17 11:11:24;;;;;;;3.13;1.95;;;18.50;99.90;;;;;;4992391;28;20243;-65
2023/03/17 11:14:04;;;;;;;2.63;1.85;;;18.50;99.90;;;;;;4973880;28;20180;-65
2023/03/17 11:16:33;;;;;;;3.15;1.98;;;18.60;99.90;;;;;;4975489;28;20246;-65
2023/03/17 11:19:01;;;;;;;4.00;2.15;;;18.60;99.90;;;;;;4973147;28;20177;-65
2023/03/17 11:21:31;;;;;;;2.25;1.85;;;18.60;99.90;;;;;;4980579;28;20181;-66
2023/03/17 11:24:12;;;;;;;2.38;1.90;;;18.60;99.90;;;;;;4976630;28;20179;-66
2023/03/17 11:26:41;;;;;;;5.00;2.30;;;18.60;99.60;;;;;;4972891;28;20302;-66
2023/03/17 11:29:28;;;;;;;2.65;1.98;;;18.50;99.90;;;;;;4975566;28;20239;-66
2023/03/17 11:32:16;;;;;;;2.72;2.08;;;18.40;99.90;;;;;;4987389;28;20172;-65
2023/03/17 11:34:53;;;;;;;4.05;2.28;;;18.30;95.60;;;;;;4956786;28;20204;-66
2023/03/17 11:37:37;;;;;;;3.50;2.13;;;18.20;99.90;;;;;;4991444;28;20188;-66
2023/03/17 11:40:13;;;;;;;2.80;1.60;;;18.00;99.90;;;;;;4975021;28;20176;-64
2023/03/17 11:42:58;;;;;;;2.17;1.70;;;17.90;99.90;;;;;;4991316;28;20268;-66
2023/03/17 11:45:32;;;;;;;3.33;1.92;;;17.90;99.90;;;;;;4991667;28;20294;-65
2023/03/17 11:48:29;;;;;;;2.63;1.80;;;17.90;99.50;;;;;;4991932;28;20171;-66
2023/03/17 11:51:05;;;;;;;4.40;1.90;;;17.90;99.90;;;;;;4992338;28;20172;-66
2023/03/17 11:53:53;;;;;;;3.60;1.85;;;17.90;99.90;;;;;;4975289;28;20175;-65
2023/03/17 11:56:39;;;;;;;5.45;1.98;;;17.90;99.90;;;;;;4971815;28;20233;-65
2023/03/17 11:59:17;;;;;;;2.75;1.88;;;17.90;99.90;;;;;;4968720;28;20183;-66
2023/03/17 12:01:56;;;;;;;2.88;1.83;;;17.90;99.90;;;;;;4984334;28;20180;-66
2023/03/17 12:04:32;;;;;;;3.25;1.77;;;17.90;99.90;;;;;;4963390;28;20208;-65
2023/03/17 12:07:25;;;;;;;2.45;1.77;;;17.90;99.90;;;;;;4966290;28;20207;-65
2023/03/17 12:10:04;;;;;;;2.47;1.80;;;18.00;99.90;;;;;;4991335;28;20182;-65
2023/03/17 12:12:39;;;;;;;3.28;1.60;;;18.00;99.90;;;;;;4990582;28;20200;-66
2023/03/17 12:15:13;;;;;;;3.47;1.63;;;18.00;99.90;;;;;;4975097;28;20190;-66
2023/03/17 12:17:50;;;;;;;4.72;1.80;;;18.10;99.90;;;;;;4974532;28;20200;-66
2023/03/17 12:20:27;;;;;;;3.70;1.80;;;18.10;99.90;;;;;;4967416;28;20259;-66
2023/03/17 12:22:57;;;;;;;2.88;1.45;;;18.10;99.90;;;;;;4971763;28;20180;-65
2023/03/17 12:25:33;;;;;;;1.88;1.45;;;18.10;99.90;;;;;;4965093;28;20316;-66
2023/03/17 12:28:19;;;;;;;2.58;1.70;;;18.20;99.90;;;;;;4973646;28;20307;-65
2023/03/17 12:31:06;;;;;;;2.35;1.60;;;18.20;99.90;;;;;;4975084;28;20179;-66
2023/03/17 12:33:56;;;;;;;2.67;1.70;;;18.20;99.90;;;;;;4964679;28;20204;-66
2023/03/17 12:36:27;;;;;;;2.20;1.50;;;18.20;99.90;;;;;;4974642;28;20176;-66
2023/03/17 12:39:00;;;;;;;2.75;1.35;;;18.20;99.90;;;;;;4974995;28;20168;-66
2023/03/17 12:41:49;;;;;;;1.67;1.40;;;18.20;99.90;;;;;;4973201;28;20204;-66
2023/03/17 12:44:23;;;;;;;2.35;1.50;;;18.30;99.90;;;;;;4966254;28;20255;-66
2023/03/17 12:47:10;;;;;;;3.53;1.58;;;18.30;99.90;;;;;;4989148;28;20275;-66
2023/03/17 12:50:18;;;;;;;4.07;1.73;;;18.40;99.90;;;;;;4982821;28;20306;-65
2023/03/17 12:53:09;;;;;;;3.90;1.60;;;18.40;99.90;;;;;;4972536;28;20179;-66
2023/03/17 12:55:36;;;;;;;2.72;1.52;;;18.50;99.90;;;;;;4971093;28;20236;-65
2023/03/17 12:58:15;;;;;;;3.28;1.73;;;18.60;99.90;;;;;;4977886;28;20232;-66
2023/03/17 13:00:56;;;;;;;4.13;1.67;;;18.70;99.90;;;;;;4979255;28;20279;-66
2023/03/17 13:03:26;;;;;;;4.40;2.33;;;18.80;99.90;;;;;;4972617;28;20259;-66
2023/03/17 13:05:58;;;;;;;2.67;1.85;;;19.00;99.90;;;;;;4972565;28;20187;-66
2023/03/17 13:08:34;;;;;;;2.67;1.88;;;19.10;99.90;;;;;;4995387;28;20168;-66